createdAt,value
2019-02-22T00:00:34.846Z,32.90
2019-02-22T00:04:39.759Z,31.97
2019-02-22T00:08:44.653Z,34.53
2019-02-22T00:12:49.564Z,36.53
2019-02-22T00:16:54.488Z,33.80
2019-02-22T00:21:00.366Z,34.27
2019-02-22T00:25:06.107Z,34.97
2019-02-22T00:29:11.018Z,35.10
2019-02-22T00:33:15.926Z,35.70
2019-02-22T00:37:20.900Z,37.33
2019-02-22T00:41:25.750Z,36.47
2019-02-22T00:45:30.647Z,36.30
2019-02-22T00:49:35.564Z,38.57
2019-02-22T00:53:40.472Z,35.80
2019-02-22T00:57:45.386Z,39.63
2019-02-22T01:01:50.302Z,37.33
2019-02-22T01:05:55.202Z,37.53
2019-02-22T01:10:00.378Z,38.67
2019-02-22T01:14:05.321Z,37.93
2019-02-22T01:18:10.221Z,38.33
2019-02-22T01:22:15.113Z,39.43
2019-02-22T01:26:20.018Z,38.07
2019-02-22T01:30:24.933Z,39.97
2019-02-22T01:34:29.854Z,41.43
2019-02-22T01:38:35.739Z,40.40
2019-02-22T01:42:40.631Z,36.97
2019-02-22T01:46:45.533Z,38.83
2019-02-22T01:50:50.435Z,43.83
2019-02-22T01:54:55.340Z,42.57
2019-02-22T01:59:00.246Z,41.53
2019-02-22T02:03:05.151Z,41.07
2019-02-22T02:07:10.115Z,39.00
2019-02-22T02:11:15.022Z,40.87
2019-02-22T02:15:19.933Z,41.20
2019-02-22T02:19:24.848Z,38.17
2019-02-22T02:23:29.735Z,39.87
2019-02-22T02:27:34.636Z,39.50
2019-02-22T02:31:39.542Z,38.43
2019-02-22T02:35:44.440Z,37.30
2019-02-22T02:39:49.351Z,36.23
2019-02-22T02:43:54.237Z,35.93
2019-02-22T02:47:59.142Z,34.90
2019-02-22T02:52:04.047Z,32.90
2019-02-22T02:56:08.957Z,34.93
2019-02-22T03:00:13.852Z,33.17
2019-02-22T03:04:18.761Z,33.97
2019-02-22T03:08:25.302Z,32.43
2019-02-22T03:12:30.202Z,32.67
2019-02-22T03:16:35.113Z,33.40
2019-02-22T03:20:40.007Z,32.37
2019-02-22T03:24:44.909Z,29.77
2019-02-22T03:28:49.823Z,29.67
2019-02-22T03:32:54.721Z,28.67
2019-02-22T03:36:59.620Z,27.57
2019-02-22T03:41:04.542Z,22.87
2019-02-22T03:45:09.723Z,27.30
2019-02-22T03:49:14.626Z,24.17
2019-02-22T03:53:24.233Z,24.90
2019-02-22T03:57:29.155Z,21.87
2019-02-22T04:01:34.055Z,24.77
2019-02-22T04:05:38.950Z,23.03
2019-02-22T04:09:43.864Z,25.73
2019-02-22T04:13:48.767Z,21.67
2019-02-22T04:17:53.683Z,21.50
2019-02-22T04:21:59.526Z,22.73
2019-02-22T04:26:04.501Z,22.00
2019-02-22T04:30:10.678Z,21.80
2019-02-22T04:34:15.590Z,21.30
2019-02-22T04:38:20.508Z,20.50
2019-02-22T04:42:25.410Z,19.77
2019-02-22T04:46:30.309Z,20.37
2019-02-22T04:50:35.799Z,18.67
2019-02-22T04:54:40.716Z,20.43
2019-02-22T04:58:45.621Z,18.73
2019-02-22T05:02:50.538Z,19.37
2019-02-22T05:06:55.445Z,18.27
2019-02-22T05:11:00.342Z,18.07
2019-02-22T05:15:12.403Z,16.83
2019-02-22T05:19:12.624Z,18.30
2019-02-22T05:23:17.559Z,19.17
2019-02-22T05:27:22.423Z,18.23
2019-02-22T05:31:27.337Z,21.20
2019-02-22T05:35:32.242Z,18.73
2019-02-22T05:39:37.149Z,19.40
2019-02-22T05:43:42.065Z,18.97
2019-02-22T05:47:46.969Z,20.50
2019-02-22T05:51:51.866Z,21.07
2019-02-22T05:55:56.785Z,19.10
2019-02-22T06:00:01.694Z,18.70
2019-02-22T06:04:06.602Z,20.73
2019-02-22T06:08:11.513Z,18.57
2019-02-22T06:12:18.505Z,17.47
2019-02-22T06:16:23.018Z,18.57
2019-02-22T06:20:27.931Z,19.40
2019-02-22T06:24:32.838Z,19.03
2019-02-22T06:28:37.749Z,18.97
2019-02-22T06:32:42.670Z,17.80
2019-02-22T06:36:47.573Z,18.23
2019-02-22T06:40:52.492Z,18.47
2019-02-22T06:44:57.420Z,17.67
2019-02-22T06:49:02.329Z,18.97
2019-02-22T06:53:07.231Z,17.50
2019-02-22T06:57:12.137Z,17.53
2019-02-22T07:01:17.050Z,17.63
2019-02-22T07:05:21.971Z,16.67
2019-02-22T07:09:26.896Z,17.23
2019-02-22T07:13:31.772Z,16.30
2019-02-22T07:17:36.749Z,15.73
2019-02-22T07:21:52.102Z,14.87
2019-02-22T07:25:49.361Z,15.87
2019-02-22T07:29:54.292Z,16.10
2019-02-22T07:33:59.176Z,14.80
2019-02-22T07:38:04.091Z,15.20
2019-02-22T07:42:09.006Z,14.00
2019-02-22T07:46:13.917Z,15.67
2019-02-22T07:50:18.829Z,15.40
2019-02-22T07:54:24.703Z,16.17
2019-02-22T07:58:29.610Z,14.87
2019-02-22T08:02:34.521Z,13.87
2019-02-22T08:06:42.350Z,15.27
2019-02-22T08:10:46.042Z,16.47
2019-02-22T08:14:50.945Z,14.00
2019-02-22T08:19:01.703Z,14.67
2019-02-22T08:23:02.483Z,14.03
2019-02-22T08:27:07.403Z,13.17
2019-02-22T08:31:12.309Z,9.50
2019-02-22T08:35:18.280Z,9.50
2019-02-22T08:39:23.187Z,8.33
2019-02-22T08:43:31.445Z,6.27
2019-02-22T08:47:35.584Z,5.73
2019-02-22T08:51:40.510Z,4.90
2019-02-22T08:55:45.394Z,5.07
2019-02-22T08:59:50.304Z,3.10
2019-02-22T09:03:55.193Z,3.00
2019-02-22T09:08:00.101Z,2.67
2019-02-22T09:12:05.013Z,2.00
2019-02-22T09:16:09.898Z,1.17
2019-02-22T09:20:14.791Z,1.43
2019-02-22T09:24:19.684Z,0.90
2019-02-22T09:28:24.585Z,1.57
2019-02-22T09:32:29.484Z,1.53
2019-02-22T09:36:34.379Z,1.43
2019-02-22T09:40:39.280Z,1.43
2019-02-22T09:44:44.180Z,0.90
2019-02-22T09:48:49.081Z,1.10
2019-02-22T09:52:53.977Z,1.13
2019-02-22T09:56:58.864Z,1.30
2019-02-22T10:01:03.771Z,1.30
2019-02-22T10:05:10.299Z,1.60
2019-02-22T10:09:15.196Z,1.10
2019-02-22T10:13:20.094Z,1.67
2019-02-22T10:17:24.984Z,1.40
2019-02-22T10:21:29.885Z,1.50
2019-02-22T10:25:34.793Z,1.60
2019-02-22T10:29:39.688Z,1.90
2019-02-22T10:33:44.587Z,1.73
2019-02-22T10:37:50.445Z,1.63
2019-02-22T10:41:55.340Z,2.00
2019-02-22T10:46:00.250Z,2.23
2019-02-22T10:50:06.788Z,1.70
2019-02-22T10:54:11.704Z,2.23
2019-02-22T10:58:16.571Z,2.10
2019-02-22T11:02:21.470Z,2.13
2019-02-22T11:06:26.375Z,2.33
2019-02-22T11:10:32.264Z,2.50
2019-02-22T11:14:37.170Z,4.13
2019-02-22T11:18:42.084Z,3.73
2019-02-22T11:22:47.049Z,4.30
2019-02-22T11:26:51.924Z,4.37
2019-02-22T11:30:56.821Z,3.83
2019-02-22T11:35:01.738Z,6.47
2019-02-22T11:39:07.102Z,4.13
2019-02-22T11:43:13.598Z,6.10
2019-02-22T11:47:18.495Z,3.83
2019-02-22T11:51:23.391Z,5.13
2019-02-22T11:55:28.364Z,4.03
2019-02-22T11:59:33.256Z,4.57
2019-02-22T12:03:38.152Z,7.87
2019-02-22T12:07:43.052Z,3.37
2019-02-22T12:11:47.958Z,3.27
2019-02-22T12:15:53.041Z,3.83
2019-02-22T12:19:58.179Z,3.70
2019-02-22T12:24:03.060Z,3.70
2019-02-22T12:28:07.966Z,3.93
2019-02-22T12:32:12.872Z,4.30
2019-02-22T12:36:18.950Z,4.13
2019-02-22T12:40:23.855Z,4.77
2019-02-22T12:44:28.744Z,5.53
2019-02-22T12:48:34.616Z,4.20
2019-02-22T12:52:39.512Z,4.40
2019-02-22T12:56:56.739Z,4.23
2019-02-22T13:00:51.005Z,4.60
2019-02-22T13:04:57.140Z,5.47
2019-02-22T13:09:02.039Z,6.60
2019-02-22T13:13:08.539Z,8.27
2019-02-22T13:17:13.443Z,5.40
2019-02-22T13:21:18.369Z,5.33
2019-02-22T13:25:23.266Z,8.33
2019-02-22T13:29:28.171Z,6.67
2019-02-22T13:33:33.072Z,5.60
2019-02-22T13:37:37.980Z,5.47
2019-02-22T13:41:42.896Z,5.70
2019-02-22T13:45:47.858Z,6.57
2019-02-22T13:49:52.768Z,7.27
2019-02-22T13:53:57.674Z,6.53
2019-02-22T13:58:02.582Z,6.57
2019-02-22T14:02:07.492Z,7.43
2019-02-22T14:06:12.382Z,6.93
2019-02-22T14:10:17.290Z,6.50
2019-02-22T14:14:22.192Z,6.80
2019-02-22T14:18:27.103Z,8.30
2019-02-22T14:22:32.011Z,6.80
2019-02-22T14:26:36.907Z,6.47
2019-02-22T14:30:41.806Z,7.60
2019-02-22T14:34:46.715Z,7.13
2019-02-22T14:38:51.672Z,7.93
2019-02-22T14:42:56.537Z,8.13
2019-02-22T14:47:01.429Z,8.27
2019-02-22T14:51:06.348Z,7.70
2019-02-22T14:55:11.253Z,7.23
2019-02-22T14:59:16.161Z,8.60
2019-02-22T15:03:21.057Z,6.83
2019-02-22T15:07:25.962Z,7.80
2019-02-22T15:11:31.328Z,6.93
2019-02-22T15:15:40.880Z,7.90
2019-02-22T15:19:45.782Z,7.17
2019-02-22T15:23:50.698Z,8.47
2019-02-22T15:27:55.576Z,7.70
2019-02-22T15:32:00.484Z,8.33
2019-02-22T15:36:06.331Z,8.87
2019-02-22T15:40:12.050Z,7.93
2019-02-22T15:44:17.008Z,6.87
2019-02-22T15:48:21.852Z,7.10
2019-02-22T15:52:26.760Z,7.50
2019-02-22T15:56:31.664Z,7.90
2019-02-22T16:00:36.831Z,7.50
2019-02-22T16:04:45.218Z,8.07
2019-02-22T16:08:49.967Z,7.97
2019-02-22T16:12:54.879Z,7.60
2019-02-22T16:16:59.789Z,8.03
2019-02-22T16:21:04.684Z,8.90
2019-02-22T16:25:18.977Z,9.73
2019-02-22T16:29:16.182Z,8.43
2019-02-22T16:33:21.095Z,8.10
2019-02-22T16:37:25.998Z,9.80
2019-02-22T16:41:30.911Z,9.13
2019-02-22T16:45:35.813Z,8.57
2019-02-22T16:49:40.712Z,9.13
2019-02-22T16:53:46.580Z,8.33
2019-02-22T16:57:51.491Z,8.63
2019-02-22T17:01:56.393Z,9.37
2019-02-22T17:06:01.299Z,10.47
2019-02-22T17:10:09.115Z,8.30
2019-02-22T17:14:14.016Z,8.13
2019-02-22T17:18:18.915Z,9.50
2019-02-22T17:22:23.822Z,9.57
2019-02-22T17:26:28.721Z,8.97
2019-02-22T17:30:33.610Z,8.07
2019-02-22T17:34:38.516Z,8.73
2019-02-22T17:38:43.408Z,8.37
2019-02-22T17:42:48.310Z,9.07
2019-02-22T17:46:57.698Z,8.30
2019-02-22T17:50:59.790Z,8.07
2019-02-22T17:55:06.424Z,8.40
2019-02-22T17:59:11.315Z,7.80
2019-02-22T18:03:16.216Z,7.07
2019-02-22T18:07:22.287Z,13.17
2019-02-22T18:11:27.182Z,9.10
2019-02-22T18:15:32.089Z,9.63
2019-02-22T18:19:36.984Z,8.50
2019-02-22T18:23:41.889Z,8.17
2019-02-22T18:27:46.784Z,8.93
2019-02-22T18:31:51.673Z,8.70
2019-02-22T18:35:56.583Z,8.37
2019-02-22T18:40:01.505Z,9.57
2019-02-22T18:44:07.363Z,8.90
2019-02-22T18:48:12.257Z,7.73
2019-02-22T18:52:17.197Z,10.00
2019-02-22T18:56:22.124Z,9.23
2019-02-22T19:00:27.035Z,8.97
2019-02-22T19:04:31.937Z,9.30
2019-02-22T19:08:36.950Z,9.60
2019-02-22T19:12:41.908Z,7.97
2019-02-22T19:16:46.823Z,8.70
2019-02-22T19:20:51.742Z,8.20
2019-02-22T19:24:56.652Z,10.37
2019-02-22T19:29:01.566Z,10.97
2019-02-22T19:33:06.457Z,10.53
2019-02-22T19:37:11.375Z,10.00
2019-02-22T19:41:16.281Z,11.83
2019-02-22T19:45:21.193Z,11.30
2019-02-22T19:49:26.106Z,13.37
2019-02-22T19:53:31.016Z,12.50
2019-02-22T19:57:35.935Z,11.30
2019-02-22T20:01:40.850Z,10.90
2019-02-22T20:05:45.760Z,10.27
2019-02-22T20:09:50.660Z,9.33
2019-02-22T20:13:55.566Z,10.27
2019-02-22T20:18:01.243Z,9.97
2019-02-22T20:22:06.217Z,12.43
2019-02-22T20:26:11.131Z,11.73
2019-02-22T20:30:19.663Z,9.37
2019-02-22T20:34:24.630Z,9.00
2019-02-22T20:38:30.565Z,8.93
2019-02-22T20:42:35.476Z,9.00
2019-02-22T20:46:40.394Z,8.80
2019-02-22T20:50:45.294Z,9.43
2019-02-22T20:54:50.212Z,8.63
2019-02-22T20:58:55.140Z,16.93
2019-02-22T21:03:00.036Z,18.23
2019-02-22T21:07:04.949Z,16.83
2019-02-22T21:11:09.849Z,13.33
2019-02-22T21:15:15.134Z,11.27
2019-02-22T21:19:20.039Z,12.00
2019-02-22T21:23:25.916Z,10.43
2019-02-22T21:27:30.823Z,9.97
2019-02-22T21:31:35.714Z,8.60
2019-02-22T21:35:40.621Z,8.40
2019-02-22T21:39:45.529Z,8.23
2019-02-22T21:43:50.435Z,8.90
2019-02-22T21:47:55.843Z,11.37
2019-02-22T21:52:00.824Z,15.00
2019-02-22T21:56:05.731Z,12.50
2019-02-22T22:00:19.628Z,11.37
2019-02-22T22:04:24.624Z,10.27
2019-02-22T22:08:29.512Z,9.80
2019-02-22T22:12:34.404Z,10.37
2019-02-22T22:16:39.316Z,10.03
2019-02-22T22:20:44.221Z,10.23
2019-02-22T22:24:49.139Z,11.40
2019-02-22T22:28:54.046Z,9.80
2019-02-22T22:32:58.948Z,10.70
2019-02-22T22:37:03.856Z,11.60
2019-02-22T22:41:08.765Z,11.93
2019-02-22T22:45:15.913Z,11.70
2019-02-22T22:49:20.788Z,7.73
2019-02-22T22:53:25.686Z,10.17
2019-02-22T22:57:30.594Z,9.03
2019-02-22T23:01:35.651Z,9.90
2019-02-22T23:05:41.618Z,8.80
2019-02-22T23:09:46.787Z,9.23
2019-02-22T23:13:51.675Z,9.03
2019-02-22T23:17:56.585Z,8.37
2019-02-22T23:22:01.497Z,8.13
2019-02-22T23:26:06.403Z,8.83
2019-02-22T23:30:11.466Z,8.80
2019-02-22T23:34:16.357Z,8.83
2019-02-22T23:38:21.273Z,9.43
2019-02-22T23:42:26.188Z,8.73
2019-02-22T23:46:31.089Z,7.93
2019-02-22T23:50:35.999Z,7.60
2019-02-22T23:54:40.891Z,7.60
2019-02-22T23:58:45.810Z,7.57
